Observations for PALERMO POINT RAISI, Italy (LICJ)

LICJ 221250Z 26017KT 9999 SCT030 13/07 Q1008
LICJ 221220Z 26017KT 9999 SCT030 13/06 Q1008
LICJ 221150Z 27018KT 9999 FEW030 SCT065 12/06 Q1009 
LICJ 221120Z 26018KT 9999 FEW030 SCT065 13/07 Q1009 
LICJ 221050Z 25016KT 9999 FEW030 SCT065 12/07 Q1009 
LICJ 221020Z 26020KT 9999 BKN030 13/07 Q1009
LICJ 220950Z 27020KT 9999 BKN030 13/07 Q1009
LICJ 220920Z 27018KT 9999 BKN030 12/07 Q1009
LICJ 220850Z 28020KT 9999 BKN030 13/09 Q1009
LICJ 220820Z 26021KT 9999 FEW018 SCT025 13/08 Q1008 
LICJ 220750Z 27020KT 9999 FEW020 SCT030 12/07 Q1008 RESHRA  
LICJ 220720Z 26019KT 9999 -RA FEW018 SCT030 12/09 Q1008 RESHRA  
LICJ 220650Z 26022KT 9999 -RA FEW020 SCT030 12/09 Q1007 
LICJ 220620Z 27023KT 9999 SCT025 BKN035 13/08 Q1007 
LICJ 220550Z 27022KT 9999 FEW020 SCT030 13/09 Q1007 
LICJ 220520Z 28022KT 9999 FEW020 BKN030 13/09 Q1007 
LICJ 220450Z 28023KT 9999 FEW015 SCT030 13/10 Q1007 
LICJ 220420Z 27022KT 9999 FEW030 SCT060 13/10 Q1006 
LICJ 220350Z 26021KT 9999 -RA BKN030 13/10 Q1006
LICJ 220320Z 23014KT 9999 -RA BKN030 13/11 Q1006
LICJ 220250Z 20016KT 9999 -RA BKN030 12/09 Q1006
LICJ 220220Z 20018KT 9999 FEW030 SCT060 12/09 Q1006 
LICJ 220150Z 19013KT 150V220 9999 FEW030 SCT060 12/08 Q1006 
LICJ 220120Z 19015KT 9999 FEW030 SCT060 12/08 Q1006 
LICJ 220050Z 19015KT 150V220 9999 FEW030 SCT060 12/08 Q1007 
LICJ 220020Z 19014KT 9999 FEW025 12/07 Q1007
LICJ 212350Z 19012KT 150V240 9999 FEW025 12/07 Q1007
LICJ 212320Z 20015KT 9999 FEW025 SCT060 12/09 Q1007 
LICJ 212250Z 22013KT 9999 -RA FEW020 SCT035 13/09 Q1008 
LICJ 212220Z 19012KT 9999 FEW030 13/09 Q1007
LICJ 212150Z 20013KT 9999 FEW030 13/09 Q1007
LICJ 212120Z 20013KT 9999 FEW030 13/09 Q1007
LICJ 212050Z 20011KT 9999 FEW030 SCT070 13/08 Q1007 
LICJ 212020Z 20011KT 9999 FEW030 SCT070 13/08 Q1007 
LICJ 211950Z 19011KT 9999 FEW030 SCT075 13/08 Q1007 
LICJ 211920Z 20012KT 9999 FEW030 SCT070 14/09 Q1008 
LICJ 211850Z 19011KT 9999 FEW030 SCT070 13/09 Q1008 
LICJ 211820Z 20011KT 9999 FEW030 SCT070 13/09 Q1008 
LICJ 211750Z 19013KT 9999 FEW030 SCT070 13/09 Q1007 
LICJ 211720Z 19012KT 9999 FEW030 SCT070 13/09 Q1007 
LICJ 211650Z 19012KT 9999 FEW030 SCT070 13/09 Q1007 
LICJ 211620Z 19014KT 9999 FEW030 SCT070 14/09 Q1007 
LICJ 211550Z 20009KT 160V220 9999 FEW030 SCT070 13/09 Q1007 
LICJ 211520Z 19014KT 9999 -RA SCT030 BKN070 13/09 Q1007 
LICJ 211450Z 19014KT 9999 -RA SCT030 BKN060 13/09 Q1007 
LICJ 211420Z 22010KT 180V240 9999 -RA SCT030 BKN060 13/10 Q1008 
LICJ 211350Z 18009KT 9999 -RA SCT030 BKN060 13/09 Q1007 
LICJ 211320Z 17011KT 8000 -RA SCT020 BKN060 13/08 Q1007 RERA
LICJ 211250Z 19013KT 7000 VCSH SCT030 BKN070 14/08 Q1008
LICJ 211220Z 19012KT 150V220 9999 SCT045 15/07 Q1008